Perm', Russia
Current Conditions -  °F | °C
As of 5:30 AM on Thursday 27 Nov 2014 (Local Time) from USPP Reporting Station
Few Clouds Few Clouds  
Wind Chill:   Ceiling: Unl
Heat Index:   Visibility: 6mi
Dew Point:   Wind: 2mph
Humidity: 85%   Direction: 200°SSW
Pressure: 30.39"   Gusts: NA
Location:  58°N, 56.25°E
Report Text: USPP 270030Z 20001MPS 9999 FEW030 M13/M15 Q1029 03290145 NOSIGRMK QFE761/1015
Loading
Personal Weather Stations






























Interactive Weather Map New forecast layout! Learn more

10-Day Weather Forecast

Advertisements
Track Severe Weather on mobile